createdAt,value
2022-09-06T00:00:18.761Z,7.00
2022-09-06T00:03:08.125Z,4.70
2022-09-06T00:05:33.162Z,4.77
2022-09-06T00:08:17.817Z,5.82
2022-09-06T00:10:44.556Z,3.65
2022-09-06T00:13:26.719Z,6.90
2022-09-06T00:15:53.590Z,5.38
2022-09-06T00:21:01.101Z,3.75
2022-09-06T00:23:46.377Z,4.03
2022-09-06T00:26:13.735Z,4.38
2022-09-06T00:29:05.988Z,2.70
2022-09-06T00:31:48.006Z,5.60
2022-09-06T00:34:14.756Z,5.43
2022-09-06T00:36:44.596Z,5.93
2022-09-06T00:39:13.530Z,5.30
2022-09-06T00:41:57.030Z,5.80
2022-09-06T00:44:23.728Z,4.10
2022-09-06T00:47:00.928Z,4.70
2022-09-06T00:49:40.015Z,4.78
2022-09-06T00:52:12.624Z,4.70
2022-09-06T00:54:40.366Z,3.95
2022-09-06T00:57:18.153Z,7.23
2022-09-06T00:59:48.745Z,5.95
2022-09-06T01:02:31.190Z,7.80
2022-09-06T01:04:58.355Z,9.73
2022-09-06T01:07:56.038Z,4.80
2022-09-06T01:10:34.963Z,7.93
2022-09-06T01:13:28.709Z,7.53
2022-09-06T01:16:11.634Z,7.35
2022-09-06T01:18:59.884Z,5.93
2022-09-06T01:22:01.940Z,5.32
2022-09-06T01:25:10.197Z,7.43
2022-09-06T01:27:48.968Z,5.93
2022-09-06T01:30:18.904Z,6.50
2022-09-06T01:33:03.768Z,7.68
2022-09-06T01:35:47.954Z,6.22
2022-09-06T01:38:15.422Z,8.10
2022-09-06T01:40:42.223Z,7.30
2022-09-06T01:43:33.127Z,5.53
2022-09-06T01:46:24.851Z,6.28
2022-09-06T01:49:09.445Z,8.88
2022-09-06T01:52:08.183Z,7.33
2022-09-06T01:54:43.731Z,7.40
2022-09-06T01:57:29.000Z,6.80
2022-09-06T02:03:27.751Z,6.70
2022-09-06T02:05:59.320Z,11.57
2022-09-06T02:11:15.440Z,7.13
2022-09-06T02:13:47.574Z,5.65
2022-09-06T02:16:20.588Z,6.38
2022-09-06T02:19:10.547Z,5.13
2022-09-06T02:21:41.430Z,9.95
2022-09-06T02:24:11.690Z,5.05
2022-09-06T02:29:27.529Z,7.85
2022-09-06T02:32:13.181Z,5.97
2022-09-06T02:34:40.924Z,7.65
2022-09-06T02:37:15.513Z,8.38
2022-09-06T02:39:50.719Z,9.45
2022-09-06T02:42:17.886Z,10.23
2022-09-06T02:44:44.650Z,13.37
2022-09-06T02:47:25.676Z,13.02
2022-09-06T02:50:04.690Z,8.13
2022-09-06T02:52:31.357Z,6.68
2022-09-06T02:57:38.768Z,7.83
2022-09-06T03:00:05.877Z,9.90
2022-09-06T03:02:38.994Z,8.40
2022-09-06T03:05:05.944Z,8.18
2022-09-06T03:07:32.652Z,9.27
2022-09-06T03:09:59.350Z,7.37
2022-09-06T03:12:32.026Z,9.68
2022-09-06T03:14:58.734Z,7.38
2022-09-06T03:17:25.548Z,9.55
2022-09-06T03:19:52.255Z,8.10
2022-09-06T03:22:19.104Z,8.73
2022-09-06T03:24:45.804Z,8.15
2022-09-06T03:27:12.436Z,7.28
2022-09-06T03:29:48.168Z,7.40
2022-09-06T03:32:37.427Z,8.02
2022-09-06T03:35:25.240Z,10.10
2022-09-06T03:37:50.327Z,7.07
2022-09-06T03:40:28.999Z,10.57
2022-09-06T03:42:55.654Z,8.15
2022-09-06T03:45:22.380Z,9.82
2022-09-06T03:47:54.142Z,8.77
2022-09-06T03:50:20.800Z,11.45
2022-09-06T03:52:55.028Z,12.55
2022-09-06T03:55:21.801Z,10.10
2022-09-06T03:57:48.487Z,13.80
2022-09-06T04:00:24.325Z,12.80
2022-09-06T04:02:51.098Z,10.57
2022-09-06T04:05:18.141Z,11.63
2022-09-06T04:07:47.341Z,13.73
2022-09-06T04:10:14.081Z,13.73
2022-09-06T04:12:40.999Z,18.43
2022-09-06T04:15:08.113Z,13.07
2022-09-06T04:17:34.785Z,14.98
2022-09-06T04:20:01.580Z,15.98
2022-09-06T04:22:28.221Z,12.80
2022-09-06T04:24:54.845Z,13.47
2022-09-06T04:27:22.026Z,16.08
2022-09-06T04:29:48.673Z,14.82
2022-09-06T04:32:15.339Z,13.88
2022-09-06T04:34:45.148Z,12.55
2022-09-06T04:37:12.039Z,14.10
2022-09-06T04:42:19.198Z,14.88
2022-09-06T04:44:45.881Z,16.15
2022-09-06T04:47:15.015Z,15.40
2022-09-06T04:49:44.367Z,15.70
2022-09-06T04:52:12.043Z,16.67
2022-09-06T04:54:38.872Z,16.58
2022-09-06T04:57:05.802Z,16.10
2022-09-06T04:59:40.708Z,14.32
2022-09-06T05:02:08.761Z,17.70
2022-09-06T05:07:16.054Z,16.00
2022-09-06T05:09:42.744Z,16.02
2022-09-06T05:12:19.529Z,15.68
2022-09-06T05:14:46.248Z,14.70
2022-09-06T05:17:21.630Z,17.52
2022-09-06T05:19:51.138Z,20.45
2022-09-06T05:25:02.565Z,16.27
2022-09-06T05:27:29.284Z,15.77
2022-09-06T05:29:56.076Z,17.98
2022-09-06T05:35:12.104Z,23.42
2022-09-06T05:37:38.873Z,18.23
2022-09-06T05:40:06.131Z,17.77
2022-09-06T05:42:32.904Z,16.63
2022-09-06T05:44:59.531Z,15.68
2022-09-06T05:47:26.444Z,16.10
2022-09-06T05:49:54.137Z,15.60
2022-09-06T05:52:20.804Z,15.90
2022-09-06T05:54:47.579Z,15.52
2022-09-06T05:57:14.353Z,17.33
2022-09-06T05:59:41.070Z,18.20
2022-09-06T06:02:07.871Z,20.42
2022-09-06T06:04:46.952Z,18.90
2022-09-06T06:07:22.136Z,19.55
2022-09-06T06:09:48.793Z,23.42
2022-09-06T06:12:15.620Z,19.60
2022-09-06T06:14:42.273Z,24.45
2022-09-06T06:17:12.209Z,16.53
2022-09-06T06:19:38.948Z,15.32
2022-09-06T06:22:05.665Z,19.65
2022-09-06T06:24:32.306Z,20.58
2022-09-06T06:27:04.785Z,19.40
2022-09-06T06:29:31.733Z,14.43
2022-09-06T06:31:58.512Z,17.85
2022-09-06T06:34:25.260Z,16.40
2022-09-06T06:36:51.901Z,14.50
2022-09-06T06:39:25.989Z,15.60
2022-09-06T06:41:53.245Z,14.57
2022-09-06T06:44:19.878Z,16.83
2022-09-06T06:49:27.040Z,15.05
2022-09-06T06:51:53.665Z,14.90
2022-09-06T06:54:20.292Z,16.53
2022-09-06T06:56:46.954Z,21.88
2022-09-06T06:59:14.401Z,14.35
2022-09-06T07:01:41.263Z,15.02
2022-09-06T07:04:07.958Z,19.13
2022-09-06T07:12:26.501Z,13.05
2022-09-06T07:14:53.133Z,14.43
2022-09-06T07:17:19.780Z,11.40
2022-09-06T07:22:33.049Z,15.52
2022-09-06T07:25:03.599Z,14.77
2022-09-06T07:30:12.797Z,18.13
2022-09-06T07:32:39.437Z,14.20
2022-09-06T07:35:06.644Z,15.73
2022-09-06T07:37:33.279Z,11.65
2022-09-06T07:39:59.922Z,16.75
2022-09-06T07:42:26.586Z,13.23
2022-09-06T07:44:53.218Z,13.70
2022-09-06T07:56:42.864Z,10.25
2022-09-06T08:02:00.342Z,11.52
2022-09-06T08:04:27.031Z,12.00
2022-09-06T08:09:40.440Z,12.80
2022-09-06T08:12:07.689Z,12.90
2022-09-06T08:14:34.638Z,12.85
2022-09-06T08:17:01.934Z,18.35
2022-09-06T08:19:37.484Z,12.23
2022-09-06T08:22:04.249Z,13.02
2022-09-06T08:24:30.870Z,10.10
2022-09-06T08:26:57.571Z,9.45
2022-09-06T08:29:24.235Z,13.65
2022-09-06T08:31:50.933Z,10.82
2022-09-06T08:34:17.631Z,11.95
2022-09-06T08:36:44.496Z,11.67
2022-09-06T08:39:12.021Z,18.17
2022-09-06T08:42:00.401Z,9.80
2022-09-06T08:44:57.458Z,11.80
2022-09-06T08:47:25.007Z,17.77
2022-09-06T08:49:56.722Z,12.47
2022-09-06T08:56:03.187Z,11.48
2022-09-06T08:58:54.167Z,11.57
2022-09-06T09:01:27.432Z,10.07
2022-09-06T09:03:57.379Z,10.40
2022-09-06T09:06:27.038Z,8.07
2022-09-06T09:09:14.879Z,13.25
2022-09-06T09:11:50.831Z,10.88
2022-09-06T09:14:29.193Z,12.50
2022-09-06T09:17:03.471Z,10.20
2022-09-06T09:19:30.166Z,11.27
2022-09-06T09:21:56.845Z,7.35
2022-09-06T09:24:23.470Z,12.65
2022-09-06T09:27:06.817Z,7.13
2022-09-06T09:32:45.310Z,13.45
2022-09-06T09:35:35.381Z,8.07
2022-09-06T09:38:12.080Z,10.98
2022-09-06T09:40:48.792Z,10.10
2022-09-06T09:43:23.134Z,14.10
2022-09-06T09:46:23.212Z,6.00
2022-09-06T09:49:10.769Z,8.82
2022-09-06T09:51:46.600Z,7.20
2022-09-06T09:54:31.450Z,7.72
2022-09-06T09:56:58.783Z,7.53
2022-09-06T09:59:53.603Z,7.63
2022-09-06T10:02:36.473Z,7.82
2022-09-06T10:05:27.291Z,8.52
2022-09-06T10:07:59.672Z,7.82
2022-09-06T10:10:28.224Z,11.13
2022-09-06T10:13:18.173Z,11.15
2022-09-06T10:15:45.054Z,8.02
2022-09-06T10:18:18.663Z,8.82
2022-09-06T10:21:15.838Z,13.50
2022-09-06T10:26:55.713Z,9.88
2022-09-06T10:29:45.397Z,7.63
2022-09-06T10:32:49.826Z,14.77
2022-09-06T10:35:23.522Z,13.02
2022-09-06T10:38:28.368Z,11.57
2022-09-06T10:50:17.552Z,9.23
2022-09-06T10:52:48.104Z,12.07
2022-09-06T10:55:17.540Z,10.30
2022-09-06T11:00:42.746Z,12.57
2022-09-06T11:06:24.342Z,7.93
2022-09-06T11:09:29.555Z,10.73
2022-09-06T11:12:08.424Z,8.68
2022-09-06T11:14:36.627Z,8.13
2022-09-06T11:17:11.840Z,11.85
2022-09-06T11:20:19.585Z,11.87
2022-09-06T11:22:58.700Z,12.38
2022-09-06T11:25:46.265Z,10.38
2022-09-06T11:28:18.129Z,17.17
2022-09-06T11:30:47.995Z,10.70
2022-09-06T11:33:26.611Z,12.43
2022-09-06T11:36:13.668Z,11.43
2022-09-06T11:38:54.527Z,14.30
2022-09-06T11:41:32.174Z,13.57
2022-09-06T11:43:59.985Z,12.43
2022-09-06T11:46:35.745Z,18.13
2022-09-06T11:49:07.732Z,15.32
2022-09-06T11:51:53.426Z,13.45
2022-09-06T11:54:26.152Z,11.52
2022-09-06T11:57:01.215Z,16.83
2022-09-06T11:59:38.374Z,11.43
2022-09-06T12:02:41.203Z,16.50
2022-09-06T12:05:12.613Z,15.07
2022-09-06T12:08:13.353Z,15.00
2022-09-06T12:10:40.296Z,12.20
2022-09-06T12:13:44.611Z,13.53
2022-09-06T12:16:12.274Z,11.43
2022-09-06T12:19:03.781Z,10.82
2022-09-06T12:21:36.928Z,15.80
2022-09-06T12:24:07.717Z,13.02
2022-09-06T12:26:55.945Z,17.40
2022-09-06T12:32:12.299Z,15.98
2022-09-06T12:34:39.110Z,19.85
2022-09-06T12:37:07.805Z,12.93
2022-09-06T12:39:35.455Z,14.63
2022-09-06T12:42:05.307Z,10.07
2022-09-06T12:51:13.462Z,15.27
2022-09-06T12:53:47.661Z,15.83
2022-09-06T12:56:20.848Z,9.73
2022-09-06T12:58:47.684Z,15.88
2022-09-06T13:01:27.384Z,11.10
2022-09-06T13:04:00.011Z,9.55
2022-09-06T13:06:27.959Z,14.93
2022-09-06T13:08:57.338Z,7.53
2022-09-06T13:11:36.984Z,8.70
2022-09-06T13:14:14.241Z,6.47
2022-09-06T13:16:48.245Z,12.98
2022-09-06T13:19:30.004Z,13.57
2022-09-06T13:21:57.241Z,9.00
2022-09-06T13:24:37.796Z,9.30
2022-09-06T13:27:22.986Z,8.20
2022-09-06T13:30:01.658Z,9.10
2022-09-06T13:32:28.803Z,9.30
2022-09-06T13:34:57.350Z,9.88
2022-09-06T13:37:26.133Z,9.15
2022-09-06T13:39:52.860Z,6.90
2022-09-06T13:42:46.386Z,9.63
2022-09-06T13:45:26.924Z,9.63
2022-09-06T13:48:03.528Z,9.48
2022-09-06T13:50:44.540Z,7.18
2022-09-06T13:53:11.299Z,8.60
2022-09-06T13:55:38.507Z,10.05
2022-09-06T13:58:05.233Z,7.30
2022-09-06T14:00:31.963Z,11.52
2022-09-06T14:02:58.950Z,7.13
2022-09-06T14:05:25.908Z,10.65
2022-09-06T14:07:52.606Z,8.73
2022-09-06T14:10:19.369Z,6.00
2022-09-06T14:12:46.162Z,10.32
2022-09-06T14:15:18.520Z,5.35
2022-09-06T14:17:47.523Z,7.72
2022-09-06T14:20:14.461Z,5.75
2022-09-06T14:22:41.157Z,7.67
2022-09-06T14:25:09.617Z,8.38
2022-09-06T14:27:36.588Z,10.63
2022-09-06T14:30:03.574Z,7.68
2022-09-06T14:32:30.534Z,5.40
2022-09-06T14:34:57.682Z,10.70
2022-09-06T14:37:24.405Z,5.32
2022-09-06T14:39:51.282Z,6.95
2022-09-06T14:42:18.192Z,10.05
2022-09-06T14:44:45.047Z,6.05
2022-09-06T14:47:12.285Z,8.03
2022-09-06T14:49:42.533Z,6.05
2022-09-06T14:52:09.559Z,5.22
2022-09-06T14:54:36.297Z,7.00
2022-09-06T14:57:03.245Z,6.28
2022-09-06T14:59:30.107Z,4.97
2022-09-06T15:01:59.328Z,6.10
2022-09-06T15:04:26.350Z,5.50
2022-09-06T15:06:53.074Z,5.28
2022-09-06T15:09:19.763Z,5.50
2022-09-06T15:11:51.777Z,2.83
2022-09-06T15:14:21.281Z,7.25
2022-09-06T15:19:30.464Z,6.75
2022-09-06T15:21:57.928Z,9.57
2022-09-06T15:24:25.261Z,8.87
2022-09-06T15:26:52.002Z,3.90
2022-09-06T15:29:18.742Z,6.95
2022-09-06T15:31:46.077Z,5.13
2022-09-06T15:34:24.073Z,8.95
2022-09-06T15:37:26.173Z,3.90
2022-09-06T15:39:52.930Z,4.05
2022-09-06T15:42:19.797Z,5.65
2022-09-06T15:44:47.473Z,3.78
2022-09-06T15:47:14.160Z,6.22
2022-09-06T15:49:40.907Z,8.97
2022-09-06T15:52:07.868Z,6.90
2022-09-06T15:54:34.698Z,4.35
2022-09-06T15:57:01.476Z,7.97
2022-09-06T15:59:28.402Z,4.28
2022-09-06T16:01:55.247Z,6.80
2022-09-06T16:04:22.070Z,5.90
2022-09-06T16:06:48.915Z,5.85
2022-09-06T16:09:15.965Z,5.25
2022-09-06T16:11:53.300Z,10.88
2022-09-06T16:14:20.302Z,4.63
2022-09-06T16:16:47.298Z,5.00
2022-09-06T16:19:14.624Z,5.32
2022-09-06T16:21:48.984Z,4.80
2022-09-06T16:24:18.117Z,6.72
2022-09-06T16:26:46.140Z,3.97
2022-09-06T16:29:20.202Z,4.22
2022-09-06T16:31:47.542Z,6.47
2022-09-06T16:34:15.325Z,5.35
2022-09-06T16:36:42.226Z,5.10
2022-09-06T16:39:09.348Z,4.23
2022-09-06T16:41:47.963Z,9.32
2022-09-06T16:44:18.585Z,2.72
2022-09-06T16:46:46.968Z,5.28
2022-09-06T16:49:15.431Z,8.05
2022-09-06T16:51:42.680Z,8.93
2022-09-06T16:54:09.945Z,7.10
2022-09-06T16:56:36.726Z,6.38
2022-09-06T16:59:06.523Z,8.70
2022-09-06T17:01:35.350Z,5.93
2022-09-06T17:04:02.554Z,3.67
2022-09-06T17:09:18.228Z,9.63
2022-09-06T17:14:26.830Z,7.03
2022-09-06T17:16:53.502Z,5.60
2022-09-06T17:19:38.950Z,4.95
2022-09-06T17:22:05.882Z,5.38
2022-09-06T17:24:32.833Z,4.57
2022-09-06T17:26:59.640Z,3.67
2022-09-06T17:29:27.354Z,5.10
2022-09-06T17:32:02.989Z,5.15
2022-09-06T17:34:40.145Z,5.97
2022-09-06T17:37:07.377Z,5.63
2022-09-06T17:39:34.378Z,7.35
2022-09-06T17:42:10.599Z,5.03
2022-09-06T17:44:38.313Z,5.85
2022-09-06T17:47:13.711Z,10.57
2022-09-06T17:49:54.763Z,5.88
2022-09-06T17:52:39.134Z,7.43
2022-09-06T17:55:06.176Z,3.77
2022-09-06T17:57:50.271Z,5.72
2022-09-06T18:00:17.151Z,7.40
2022-09-06T18:02:46.803Z,7.18
2022-09-06T18:05:13.839Z,8.77
2022-09-06T18:07:45.741Z,7.50
2022-09-06T18:10:12.501Z,9.05
2022-09-06T18:12:52.788Z,8.77
2022-09-06T18:15:20.139Z,9.85
2022-09-06T18:17:46.880Z,8.98
2022-09-06T18:20:14.348Z,4.70
2022-09-06T18:22:41.072Z,6.72
2022-09-06T18:25:10.790Z,8.38
2022-09-06T18:27:43.720Z,5.72
2022-09-06T18:30:14.991Z,9.10
2022-09-06T18:32:42.010Z,9.03
2022-09-06T18:46:36.498Z,5.87
2022-09-06T18:49:33.537Z,8.02
2022-09-06T18:52:13.055Z,8.45
2022-09-06T18:54:59.951Z,9.23
2022-09-06T18:57:26.635Z,10.25
2022-09-06T19:07:58.766Z,11.68
2022-09-06T19:10:45.664Z,14.48
2022-09-06T19:13:25.931Z,11.23
2022-09-06T19:19:13.964Z,15.85
2022-09-06T19:43:34.604Z,8.32
2022-09-06T19:51:21.337Z,13.07
2022-09-06T19:53:50.116Z,8.43
2022-09-06T19:56:24.486Z,7.15
2022-09-06T19:59:05.649Z,9.38
2022-09-06T20:01:39.130Z,5.75
2022-09-06T20:06:49.829Z,6.90
2022-09-06T20:09:21.396Z,8.20
2022-09-06T20:14:25.175Z,10.65
2022-09-06T20:16:52.200Z,6.95
2022-09-06T20:22:00.352Z,9.77
2022-09-06T20:24:27.204Z,11.95
2022-09-06T20:26:54.354Z,6.38
2022-09-06T20:29:21.247Z,9.10
2022-09-06T20:31:55.314Z,10.80
2022-09-06T20:34:24.394Z,10.48
2022-09-06T20:36:51.005Z,11.98
2022-09-06T20:39:17.574Z,9.55
2022-09-06T20:41:45.246Z,11.73
2022-09-06T20:44:12.178Z,10.57
2022-09-06T20:46:38.873Z,12.52
2022-09-06T20:49:06.044Z,9.65
2022-09-06T20:51:34.676Z,13.50
2022-09-06T20:54:03.310Z,13.18
2022-09-06T20:56:32.343Z,10.30
2022-09-06T20:59:01.170Z,10.15
2022-09-06T21:01:30.678Z,11.98
2022-09-06T21:03:59.713Z,10.93
2022-09-06T21:06:29.397Z,12.25
2022-09-06T21:08:57.434Z,9.63
2022-09-06T21:11:24.425Z,11.82
2022-09-06T21:13:53.705Z,12.07
2022-09-06T21:16:24.663Z,8.73
2022-09-06T21:18:57.082Z,15.68
2022-09-06T21:21:24.159Z,14.67
2022-09-06T21:23:51.117Z,13.00
2022-09-06T21:26:18.206Z,14.27
2022-09-06T21:28:51.185Z,12.23
2022-09-06T21:31:23.875Z,10.48
2022-09-06T21:33:53.458Z,11.50
2022-09-06T21:36:23.064Z,10.65
2022-09-06T21:38:54.001Z,13.63
2022-09-06T21:41:21.006Z,9.15
2022-09-06T21:43:55.372Z,10.85
2022-09-06T21:46:24.015Z,11.37
2022-09-06T21:48:54.648Z,14.40
2022-09-06T21:51:23.721Z,18.58
2022-09-06T21:53:51.895Z,11.55
2022-09-06T21:56:19.225Z,13.55
2022-09-06T21:58:57.779Z,14.63
2022-09-06T22:01:29.878Z,16.40
2022-09-06T22:03:56.508Z,15.27
2022-09-06T22:06:31.924Z,17.90
2022-09-06T22:09:00.676Z,20.02
2022-09-06T22:11:29.728Z,15.70
2022-09-06T22:14:02.778Z,12.80
2022-09-06T22:16:47.073Z,14.38
2022-09-06T22:19:13.741Z,14.25
2022-09-06T22:21:40.417Z,21.77
2022-09-06T22:24:09.700Z,15.40
2022-09-06T22:26:38.574Z,15.75
2022-09-06T22:29:07.533Z,11.90
2022-09-06T22:31:36.015Z,11.07
2022-09-06T22:34:06.135Z,13.15
2022-09-06T22:36:33.059Z,11.53
2022-09-06T22:38:59.769Z,15.90
2022-09-06T22:41:39.997Z,12.02
2022-09-06T22:44:07.048Z,11.30
2022-09-06T22:46:34.237Z,16.48
2022-09-06T22:49:03.724Z,11.10
2022-09-06T22:51:30.320Z,15.35
2022-09-06T22:53:57.140Z,10.20
2022-09-06T22:56:37.785Z,13.50
2022-09-06T22:59:04.945Z,12.57
2022-09-06T23:01:32.139Z,9.43
2022-09-06T23:04:20.406Z,9.23
2022-09-06T23:12:11.475Z,9.00
2022-09-06T23:14:39.880Z,6.27
2022-09-06T23:17:06.591Z,10.35
2022-09-06T23:19:48.005Z,8.30
2022-09-06T23:22:14.783Z,9.23
2022-09-06T23:24:43.949Z,12.45
2022-09-06T23:27:10.577Z,8.70
2022-09-06T23:29:46.672Z,10.63
2022-09-06T23:32:15.748Z,12.93
2022-09-06T23:34:42.476Z,11.85
2022-09-06T23:37:15.035Z,14.50
2022-09-06T23:39:53.295Z,10.47
2022-09-06T23:42:20.196Z,11.13
2022-09-06T23:44:49.655Z,16.33
2022-09-06T23:47:16.434Z,12.07
2022-09-06T23:49:43.067Z,16.65
2022-09-06T23:52:09.753Z,13.60
2022-09-06T23:54:38.996Z,9.68
2022-09-06T23:57:05.654Z,5.95
2022-09-06T23:59:41.305Z,11.02
